createdAt,value
2022-09-25T00:00:26.867Z,16.83
2022-09-25T00:02:53.559Z,15.68
2022-09-25T00:05:20.214Z,16.52
2022-09-25T00:07:46.815Z,14.25
2022-09-25T00:10:13.395Z,12.57
2022-09-25T00:12:40.003Z,14.57
2022-09-25T00:15:07.041Z,11.43
2022-09-25T00:17:33.941Z,13.88
2022-09-25T00:20:00.784Z,18.13
2022-09-25T00:22:28.049Z,21.67
2022-09-25T00:24:54.746Z,19.08
2022-09-25T00:27:21.411Z,19.33
2022-09-25T00:29:48.063Z,19.25
2022-09-25T00:32:15.239Z,16.15
2022-09-25T00:34:42.093Z,16.17
2022-09-25T00:37:08.838Z,15.57
2022-09-25T00:39:35.594Z,15.70
2022-09-25T00:42:02.276Z,16.75
2022-09-25T00:44:56.251Z,18.55
2022-09-25T00:50:36.804Z,13.18
2022-09-25T00:53:07.193Z,18.02
2022-09-25T00:55:33.988Z,17.08
2022-09-25T00:58:00.665Z,13.65
2022-09-25T01:00:27.287Z,15.93
2022-09-25T01:02:54.626Z,13.13
2022-09-25T01:05:24.839Z,13.63
2022-09-25T01:07:52.253Z,15.93
2022-09-25T01:10:19.556Z,15.35
2022-09-25T01:12:48.400Z,17.25
2022-09-25T01:15:16.795Z,13.93
2022-09-25T01:21:01.067Z,14.23
2022-09-25T01:24:05.871Z,17.95
2022-09-25T01:27:12.422Z,17.17
2022-09-25T01:30:03.482Z,15.82
2022-09-25T01:32:51.581Z,15.23
2022-09-25T01:35:44.563Z,15.18
2022-09-25T01:38:38.545Z,15.85
2022-09-25T01:41:10.333Z,14.68
2022-09-25T01:43:43.524Z,12.87
2022-09-25T01:46:19.435Z,13.77
2022-09-25T01:48:48.426Z,13.55
2022-09-25T01:51:25.230Z,14.95
2022-09-25T01:53:54.327Z,13.68
2022-09-25T01:56:31.526Z,12.48
2022-09-25T01:59:00.204Z,13.18
2022-09-25T02:01:29.479Z,16.85
2022-09-25T02:04:00.185Z,12.98
2022-09-25T02:06:26.882Z,13.95
2022-09-25T02:08:57.925Z,13.77
2022-09-25T02:11:28.485Z,16.13
2022-09-25T02:14:03.142Z,16.08
2022-09-25T02:16:33.523Z,16.17
2022-09-25T02:19:20.118Z,17.77
2022-09-25T02:24:58.886Z,15.32
2022-09-25T02:27:27.466Z,15.25
2022-09-25T02:29:54.817Z,14.82
2022-09-25T02:32:23.125Z,14.18
2022-09-25T02:34:49.723Z,12.10
2022-09-25T02:37:17.173Z,14.93
2022-09-25T02:39:45.758Z,17.90
2022-09-25T02:42:41.734Z,15.20
2022-09-25T02:45:30.836Z,17.88
2022-09-25T02:48:21.797Z,13.20
2022-09-25T02:51:08.837Z,13.45
2022-09-25T02:53:42.440Z,13.65
2022-09-25T02:56:30.029Z,13.85
2022-09-25T02:58:58.487Z,21.08
2022-09-25T03:01:26.359Z,16.45
2022-09-25T03:03:54.536Z,11.32
2022-09-25T03:06:21.708Z,14.35
2022-09-25T03:08:51.999Z,15.70
2022-09-25T03:11:19.749Z,13.40
2022-09-25T03:13:46.501Z,14.52
2022-09-25T03:16:36.368Z,12.55
2022-09-25T03:19:03.227Z,11.00
2022-09-25T03:21:29.878Z,13.15
2022-09-25T03:23:56.926Z,9.70
2022-09-25T03:26:24.830Z,11.52
2022-09-25T03:28:52.507Z,10.65
2022-09-25T03:31:19.365Z,8.90
2022-09-25T03:33:46.393Z,8.75
2022-09-25T03:38:57.775Z,8.20
2022-09-25T03:41:24.883Z,9.95
2022-09-25T03:43:51.877Z,8.25
2022-09-25T03:46:20.395Z,8.55
2022-09-25T03:48:47.109Z,10.68
2022-09-25T03:51:13.862Z,9.55
2022-09-25T03:53:40.844Z,10.02
2022-09-25T03:56:14.122Z,10.18
2022-09-25T03:58:41.012Z,9.38
2022-09-25T04:01:07.730Z,11.30
2022-09-25T04:03:34.479Z,9.85
2022-09-25T04:06:03.635Z,12.07
2022-09-25T04:08:31.258Z,11.57
2022-09-25T04:10:59.571Z,8.60
2022-09-25T04:13:31.359Z,10.30
2022-09-25T04:15:58.796Z,9.90
2022-09-25T04:18:25.849Z,9.10
2022-09-25T04:20:52.464Z,10.48
2022-09-25T04:23:19.043Z,12.73
2022-09-25T04:25:45.889Z,13.63
2022-09-25T04:28:12.700Z,15.15
2022-09-25T04:30:39.327Z,12.57
2022-09-25T04:33:25.867Z,13.23
2022-09-25T04:35:52.529Z,11.48
2022-09-25T04:38:19.115Z,11.55
2022-09-25T04:40:45.967Z,10.63
2022-09-25T04:43:12.773Z,15.13
2022-09-25T04:45:39.418Z,10.75
2022-09-25T04:48:06.159Z,10.20
2022-09-25T04:50:33.110Z,11.98
2022-09-25T04:53:00.022Z,12.98
2022-09-25T04:55:27.240Z,15.02
2022-09-25T04:57:59.582Z,17.48
2022-09-25T05:00:28.874Z,15.27
2022-09-25T05:02:55.726Z,12.98
2022-09-25T05:05:22.400Z,11.50
2022-09-25T05:07:53.113Z,11.50
2022-09-25T05:10:20.911Z,11.27
2022-09-25T05:12:48.621Z,10.50
2022-09-25T05:15:15.310Z,10.85
2022-09-25T05:17:41.917Z,12.82
2022-09-25T05:20:09.139Z,12.10
2022-09-25T05:22:35.796Z,11.48
2022-09-25T05:25:02.400Z,12.15
2022-09-25T05:27:29.008Z,10.75
2022-09-25T05:29:56.793Z,8.55
2022-09-25T05:32:23.489Z,10.85
2022-09-25T05:34:50.124Z,10.48
2022-09-25T05:37:17.098Z,10.27
2022-09-25T05:39:43.745Z,9.32
2022-09-25T05:42:10.473Z,12.02
2022-09-25T05:44:39.503Z,7.88
2022-09-25T05:47:06.253Z,8.45
2022-09-25T05:49:32.924Z,10.10
2022-09-25T05:51:59.588Z,11.43
2022-09-25T05:54:26.341Z,9.30
2022-09-25T05:56:52.969Z,10.15
2022-09-25T05:59:19.645Z,8.40
2022-09-25T06:01:46.427Z,10.75
2022-09-25T06:04:13.140Z,8.35
2022-09-25T06:06:39.781Z,7.47
2022-09-25T06:09:06.633Z,6.95
2022-09-25T06:11:33.466Z,6.95
2022-09-25T06:14:00.172Z,7.97
2022-09-25T06:16:28.264Z,7.18
2022-09-25T06:18:54.935Z,7.72
2022-09-25T06:21:22.077Z,7.63
2022-09-25T06:23:49.429Z,7.28
2022-09-25T06:26:16.205Z,9.65
2022-09-25T06:28:43.130Z,8.35
2022-09-25T06:31:09.941Z,9.00
2022-09-25T06:33:36.602Z,10.05
2022-09-25T06:36:05.406Z,7.63
2022-09-25T06:38:35.047Z,8.52
2022-09-25T06:41:01.862Z,9.50
2022-09-25T06:43:28.911Z,9.95
2022-09-25T06:45:58.293Z,9.52
2022-09-25T06:48:25.033Z,9.40
2022-09-25T06:50:53.098Z,13.68
2022-09-25T06:53:20.233Z,8.68
2022-09-25T06:55:46.955Z,6.57
2022-09-25T06:58:15.273Z,7.88
2022-09-25T07:00:42.218Z,8.77
2022-09-25T07:03:28.798Z,7.72
2022-09-25T07:05:55.465Z,7.63
2022-09-25T07:08:22.093Z,7.97
2022-09-25T07:10:50.370Z,7.18
2022-09-25T07:13:18.705Z,9.38
2022-09-25T07:15:54.331Z,12.32
2022-09-25T07:18:21.804Z,10.30
2022-09-25T07:20:49.026Z,12.35
2022-09-25T07:23:17.287Z,10.23
2022-09-25T07:25:45.105Z,11.50
2022-09-25T07:28:15.026Z,13.50
2022-09-25T07:30:42.184Z,13.18
2022-09-25T07:33:09.032Z,12.65
2022-09-25T07:35:36.058Z,11.05
2022-09-25T07:38:02.895Z,9.60
2022-09-25T07:40:33.783Z,8.82
2022-09-25T07:43:01.038Z,7.80
2022-09-25T07:45:28.159Z,8.73
2022-09-25T07:47:58.120Z,10.55
2022-09-25T07:50:24.853Z,8.65
2022-09-25T07:52:52.473Z,10.68
2022-09-25T07:55:19.152Z,9.60
2022-09-25T07:57:46.294Z,10.77
2022-09-25T08:00:13.323Z,10.80
2022-09-25T08:02:40.029Z,10.90
2022-09-25T08:05:07.335Z,9.80
2022-09-25T08:07:33.954Z,13.40
2022-09-25T08:10:00.721Z,10.68
2022-09-25T08:12:27.449Z,11.75
2022-09-25T08:14:54.265Z,11.57
2022-09-25T08:17:22.119Z,11.48
2022-09-25T08:19:48.757Z,12.10
2022-09-25T08:22:15.383Z,12.23
2022-09-25T08:24:42.057Z,12.30
2022-09-25T08:27:08.719Z,11.95
2022-09-25T08:29:35.479Z,12.00
2022-09-25T08:32:02.187Z,10.95
2022-09-25T08:34:40.704Z,10.90
2022-09-25T08:37:09.366Z,15.32
2022-09-25T08:39:36.028Z,14.10
2022-09-25T08:42:02.748Z,14.88
2022-09-25T08:44:52.553Z,16.08
2022-09-25T08:47:44.496Z,15.20
2022-09-25T08:50:19.147Z,13.82
2022-09-25T08:52:49.534Z,17.88
2022-09-25T08:55:54.034Z,17.25
2022-09-25T08:58:25.175Z,15.15
2022-09-25T09:00:54.157Z,16.98
2022-09-25T09:03:22.533Z,17.27
2022-09-25T09:05:51.683Z,15.30
2022-09-25T09:08:20.362Z,19.00
2022-09-25T09:10:51.077Z,17.80
2022-09-25T09:18:40.039Z,17.75
2022-09-25T09:21:28.377Z,22.10
2022-09-25T09:24:16.471Z,20.73
2022-09-25T09:27:07.835Z,20.38
2022-09-25T09:32:56.512Z,20.42
2022-09-25T09:35:34.591Z,19.65
2022-09-25T09:38:23.603Z,20.35
2022-09-25T09:41:02.089Z,17.02
2022-09-25T09:43:57.585Z,16.85
2022-09-25T09:46:34.332Z,17.05
2022-09-25T09:49:22.034Z,15.20
2022-09-25T09:52:17.448Z,15.63
2022-09-25T09:54:51.146Z,15.65
2022-09-25T09:57:21.513Z,14.50
2022-09-25T09:59:52.660Z,14.68
2022-09-25T10:02:41.171Z,14.63
2022-09-25T10:05:15.904Z,14.18
2022-09-25T10:07:42.666Z,12.45
2022-09-25T10:10:12.358Z,13.73
2022-09-25T10:12:38.968Z,13.48
2022-09-25T10:15:13.505Z,11.98
2022-09-25T10:17:40.134Z,12.57
2022-09-25T10:20:17.990Z,10.23
2022-09-25T10:22:46.210Z,10.77
2022-09-25T10:25:13.042Z,13.10
2022-09-25T10:27:45.290Z,10.93
2022-09-25T10:33:13.196Z,17.40
2022-09-25T10:38:42.861Z,11.85
2022-09-25T10:41:14.685Z,10.68
2022-09-25T10:43:56.564Z,12.53
2022-09-25T10:46:49.622Z,12.05
2022-09-25T10:49:40.652Z,11.20
2022-09-25T10:52:09.000Z,11.77
2022-09-25T10:54:40.341Z,11.88
2022-09-25T10:57:35.784Z,10.27
2022-09-25T11:00:05.786Z,9.45
2022-09-25T11:02:38.191Z,9.50
2022-09-25T11:05:06.229Z,13.32
2022-09-25T11:07:33.223Z,10.20
2022-09-25T11:10:00.482Z,9.63
2022-09-25T11:12:29.748Z,10.00
2022-09-25T11:15:01.434Z,12.30
2022-09-25T11:17:37.802Z,9.82
2022-09-25T11:20:31.566Z,10.15
2022-09-25T11:23:38.064Z,10.80
2022-09-25T11:26:21.982Z,10.77
2022-09-25T11:28:56.314Z,10.75
2022-09-25T11:31:32.775Z,9.88
2022-09-25T11:34:39.279Z,9.32
2022-09-25T11:37:27.778Z,11.23
2022-09-25T11:40:21.798Z,10.15
2022-09-25T11:43:06.290Z,10.40
2022-09-25T11:45:54.072Z,8.82
2022-09-25T11:48:44.268Z,11.30
2022-09-25T11:51:39.127Z,9.60
2022-09-25T11:57:01.636Z,7.95
2022-09-25T11:59:53.970Z,13.75
2022-09-25T12:02:31.203Z,7.97
2022-09-25T12:08:13.947Z,7.38
2022-09-25T12:11:08.294Z,12.00
2022-09-25T12:13:44.661Z,11.63
2022-09-25T12:16:26.680Z,11.57
2022-09-25T12:19:06.772Z,12.27
2022-09-25T12:21:43.576Z,11.52
2022-09-25T12:24:33.778Z,9.82
2022-09-25T12:27:07.313Z,11.40
2022-09-25T12:29:41.774Z,16.13
2022-09-25T12:32:26.346Z,12.57
2022-09-25T12:40:55.350Z,10.55
2022-09-25T12:46:09.732Z,10.60
2022-09-25T12:48:58.302Z,11.20
2022-09-25T12:51:34.887Z,11.43
2022-09-25T12:54:07.366Z,11.38
2022-09-25T12:56:41.656Z,11.43
2022-09-25T12:59:19.039Z,12.85
2022-09-25T13:01:55.849Z,10.60
2022-09-25T13:04:35.110Z,11.02
2022-09-25T13:07:41.660Z,9.73
2022-09-25T13:10:30.103Z,14.48
2022-09-25T13:12:58.561Z,11.95
2022-09-25T13:15:28.721Z,11.55
2022-09-25T13:17:55.750Z,12.43
2022-09-25T13:23:32.867Z,13.85
2022-09-25T13:26:13.293Z,12.80
2022-09-25T13:28:42.003Z,14.38
2022-09-25T13:31:11.053Z,14.13
2022-09-25T13:33:43.475Z,12.00
2022-09-25T13:36:20.026Z,13.27
2022-09-25T13:39:06.610Z,11.75
2022-09-25T13:41:33.242Z,12.98
2022-09-25T13:44:40.543Z,15.68
2022-09-25T13:47:31.513Z,14.80
2022-09-25T13:50:26.075Z,14.80
2022-09-25T13:53:20.536Z,16.65
2022-09-25T13:55:53.391Z,14.80
2022-09-25T14:00:57.559Z,16.63
2022-09-25T14:03:45.687Z,17.45
2022-09-25T14:06:36.901Z,16.17
2022-09-25T14:09:25.386Z,18.40
2022-09-25T14:14:45.270Z,16.27
2022-09-25T14:17:15.904Z,15.52
2022-09-25T14:19:44.214Z,14.82
2022-09-25T14:22:20.981Z,16.25
2022-09-25T14:24:47.652Z,17.00
2022-09-25T14:27:20.053Z,15.25
2022-09-25T14:29:46.763Z,15.10
2022-09-25T14:32:53.297Z,13.00
2022-09-25T14:35:51.185Z,16.80
2022-09-25T14:38:50.335Z,15.30
2022-09-25T14:41:57.493Z,14.80
2022-09-25T14:45:05.874Z,17.88
2022-09-25T14:47:35.778Z,15.75
2022-09-25T14:50:02.375Z,16.88
2022-09-25T14:52:31.999Z,14.77
2022-09-25T14:55:00.236Z,13.23
2022-09-25T14:57:30.995Z,13.63
2022-09-25T15:00:00.979Z,18.00
2022-09-25T15:02:36.723Z,12.10
2022-09-25T15:08:02.026Z,12.55
2022-09-25T15:10:35.755Z,14.82
2022-09-25T15:13:19.999Z,13.95
2022-09-25T15:16:12.057Z,14.25
2022-09-25T15:18:39.689Z,15.00
2022-09-25T15:21:13.976Z,12.52
2022-09-25T15:23:40.645Z,12.07
2022-09-25T15:26:14.890Z,12.85
2022-09-25T15:28:41.743Z,13.90
2022-09-25T15:31:08.398Z,20.58
2022-09-25T15:33:37.798Z,13.15
2022-09-25T15:36:22.751Z,13.25
2022-09-25T15:38:53.324Z,14.65
2022-09-25T15:41:19.931Z,15.45
2022-09-25T15:43:46.918Z,13.32
2022-09-25T15:49:02.613Z,15.68
2022-09-25T15:51:33.372Z,12.73
2022-09-25T15:54:01.954Z,14.60
2022-09-25T15:56:44.509Z,19.23
2022-09-25T15:59:28.933Z,14.15
2022-09-25T16:02:15.651Z,13.38
2022-09-25T16:04:49.422Z,13.65
2022-09-25T16:07:38.997Z,12.20
2022-09-25T16:12:58.038Z,18.40
2022-09-25T16:15:31.059Z,17.05
2022-09-25T16:18:05.275Z,17.30
2022-09-25T16:20:36.008Z,17.77
2022-09-25T16:23:05.516Z,17.13
2022-09-25T16:25:36.562Z,15.07
2022-09-25T16:28:08.015Z,19.13
2022-09-25T16:30:34.779Z,24.25
2022-09-25T16:33:05.628Z,24.92
2022-09-25T16:36:08.929Z,16.95
2022-09-25T16:38:29.877Z,24.58
2022-09-25T16:41:19.312Z,19.25
2022-09-25T16:43:46.617Z,19.90
2022-09-25T16:46:16.286Z,16.70
2022-09-25T16:48:43.016Z,18.38
2022-09-25T16:51:11.559Z,19.20
2022-09-25T16:53:39.968Z,17.90
2022-09-25T16:56:06.619Z,20.42
2022-09-25T16:58:34.054Z,19.05
2022-09-25T17:01:04.630Z,23.20
2022-09-25T17:03:49.586Z,19.30
2022-09-25T17:06:17.597Z,20.55
2022-09-25T17:08:44.516Z,22.77
2022-09-25T17:11:11.830Z,24.48
2022-09-25T17:13:38.546Z,22.60
2022-09-25T17:16:05.908Z,24.70
2022-09-25T17:18:32.748Z,23.35
2022-09-25T17:21:00.375Z,20.95
2022-09-25T17:23:27.231Z,23.55
2022-09-25T17:26:00.859Z,24.00
2022-09-25T17:28:27.473Z,21.50
2022-09-25T17:30:54.249Z,25.67
2022-09-25T17:33:22.391Z,24.65
2022-09-25T17:36:10.542Z,27.27
2022-09-25T17:38:37.179Z,26.30
2022-09-25T17:41:06.390Z,29.40
2022-09-25T17:43:33.222Z,31.48
2022-09-25T17:46:00.456Z,33.33
2022-09-25T17:48:28.842Z,29.13
2022-09-25T17:50:58.126Z,30.88
2022-09-25T17:53:27.807Z,31.33
2022-09-25T17:55:56.072Z,46.03
2022-09-25T17:58:23.393Z,32.03
2022-09-25T18:00:51.214Z,48.10
2022-09-25T18:03:18.040Z,58.83
2022-09-25T18:05:45.043Z,41.72
2022-09-25T18:08:12.183Z,39.05
2022-09-25T18:10:39.026Z,27.35
2022-09-25T18:13:06.560Z,28.20
2022-09-25T18:15:34.420Z,65.90
2022-09-25T18:18:01.296Z,38.20
2022-09-25T18:20:47.910Z,45.35
2022-09-25T18:23:14.568Z,36.13
2022-09-25T18:25:41.542Z,27.08
2022-09-25T18:28:08.364Z,25.50
2022-09-25T18:30:35.206Z,31.77
2022-09-25T18:33:01.865Z,37.90
2022-09-25T18:35:28.626Z,67.50
2022-09-25T18:37:58.280Z,43.17
2022-09-25T18:40:25.001Z,44.17
2022-09-25T18:42:51.910Z,43.00
2022-09-25T18:45:18.588Z,40.05
2022-09-25T18:47:46.488Z,38.30
2022-09-25T18:50:18.098Z,43.28
2022-09-25T18:52:47.325Z,34.83
2022-09-25T18:55:14.044Z,33.25
2022-09-25T18:57:40.942Z,23.35
2022-09-25T19:00:08.114Z,38.55
2022-09-25T19:02:38.847Z,21.50
2022-09-25T19:05:06.494Z,19.88
2022-09-25T19:07:33.595Z,18.67
2022-09-25T19:10:07.604Z,21.17
2022-09-25T19:12:34.417Z,20.75
2022-09-25T19:15:03.742Z,21.83
2022-09-25T19:17:31.026Z,18.90
2022-09-25T19:19:57.727Z,18.05
2022-09-25T19:22:24.504Z,18.45
2022-09-25T19:24:52.651Z,26.40
2022-09-25T19:27:19.397Z,22.55
2022-09-25T19:29:46.284Z,21.73
2022-09-25T19:32:14.216Z,25.02
2022-09-25T19:34:40.934Z,25.15
2022-09-25T19:37:07.723Z,22.25
2022-09-25T19:39:54.323Z,18.27
2022-09-25T19:42:21.106Z,23.35
2022-09-25T19:44:48.602Z,32.45
2022-09-25T19:47:15.662Z,31.50
2022-09-25T19:49:42.393Z,28.05
2022-09-25T19:52:09.244Z,29.98
2022-09-25T19:54:36.036Z,22.23
2022-09-25T19:57:02.824Z,15.25
2022-09-25T19:59:29.822Z,16.10
2022-09-25T20:01:58.166Z,14.32
2022-09-25T20:04:24.887Z,13.73
2022-09-25T20:06:51.547Z,13.77
2022-09-25T20:09:18.260Z,21.65
2022-09-25T20:11:45.077Z,31.83
2022-09-25T20:14:12.756Z,15.38
2022-09-25T20:16:39.488Z,13.35
2022-09-25T20:19:06.609Z,22.67
2022-09-25T20:21:35.054Z,26.75
2022-09-25T20:24:02.640Z,15.57
2022-09-25T20:26:29.901Z,13.20
2022-09-25T20:28:59.409Z,21.77
2022-09-25T20:31:26.593Z,10.18
2022-09-25T20:33:54.132Z,11.63
2022-09-25T20:36:21.147Z,23.98
2022-09-25T20:38:50.946Z,11.88
2022-09-25T20:41:17.935Z,13.48
2022-09-25T20:43:44.676Z,13.25
2022-09-25T20:46:12.606Z,9.07
2022-09-25T20:48:47.303Z,10.40
2022-09-25T20:51:16.897Z,12.13
2022-09-25T20:53:43.833Z,9.57
2022-09-25T20:56:12.192Z,11.80
2022-09-25T20:58:39.472Z,13.77
2022-09-25T21:01:09.103Z,10.70
2022-09-25T21:03:37.607Z,11.23
2022-09-25T21:06:06.420Z,15.88
2022-09-25T21:08:33.200Z,9.27
2022-09-25T21:11:01.833Z,15.90
2022-09-25T21:13:29.440Z,28.55
2022-09-25T21:16:04.420Z,25.55
2022-09-25T21:18:35.099Z,35.13
2022-09-25T21:21:04.026Z,9.48
2022-09-25T21:23:30.782Z,11.93
2022-09-25T21:26:13.918Z,10.57
2022-09-25T21:28:42.128Z,12.07
2022-09-25T21:31:10.806Z,9.55
2022-09-25T21:33:37.511Z,9.07
2022-09-25T21:36:04.531Z,7.32
2022-09-25T21:38:31.220Z,8.45
2022-09-25T21:41:01.516Z,9.63
2022-09-25T21:43:31.204Z,7.53
2022-09-25T21:46:01.094Z,7.57
2022-09-25T21:48:28.301Z,7.82
2022-09-25T21:50:58.345Z,6.60
2022-09-25T21:53:25.495Z,7.85
2022-09-25T21:56:03.570Z,7.22
2022-09-25T21:58:30.229Z,5.40
2022-09-25T22:01:14.807Z,6.43
2022-09-25T22:03:42.678Z,5.18
2022-09-25T22:06:11.240Z,7.32
2022-09-25T22:08:39.042Z,7.65
2022-09-25T22:11:06.058Z,14.20
2022-09-25T22:13:34.368Z,5.63
2022-09-25T22:16:03.428Z,6.72
2022-09-25T22:18:30.197Z,5.18
2022-09-25T22:20:56.918Z,7.63
2022-09-25T22:23:24.382Z,5.75
2022-09-25T22:25:51.997Z,7.15
2022-09-25T22:28:19.609Z,6.47
2022-09-25T22:30:46.346Z,5.25
2022-09-25T22:33:13.199Z,10.77
2022-09-25T22:35:40.105Z,6.25
2022-09-25T22:38:06.781Z,4.78
2022-09-25T22:40:36.990Z,6.85
2022-09-25T22:43:04.043Z,5.00
2022-09-25T22:45:30.719Z,5.30
2022-09-25T22:47:59.092Z,6.03
2022-09-25T22:50:26.752Z,5.00
2022-09-25T22:52:58.221Z,5.95
2022-09-25T22:55:26.041Z,7.13
2022-09-25T22:57:52.731Z,6.82
2022-09-25T23:00:19.342Z,6.03
2022-09-25T23:02:46.061Z,4.28
2022-09-25T23:05:12.775Z,5.15
2022-09-25T23:07:39.504Z,4.60
2022-09-25T23:10:06.944Z,4.60
2022-09-25T23:12:33.796Z,4.30
2022-09-25T23:15:00.430Z,5.82
2022-09-25T23:17:27.162Z,3.78
2022-09-25T23:19:53.814Z,6.85
2022-09-25T23:22:20.496Z,3.90
2022-09-25T23:24:47.099Z,4.38
2022-09-25T23:27:13.690Z,4.65
2022-09-25T23:29:40.562Z,4.53
2022-09-25T23:32:08.123Z,5.55
2022-09-25T23:34:34.823Z,3.95
2022-09-25T23:37:01.434Z,4.00
2022-09-25T23:39:28.229Z,3.72
2022-09-25T23:41:54.858Z,3.85
2022-09-25T23:44:21.658Z,3.85
2022-09-25T23:46:48.342Z,5.00
2022-09-25T23:49:15.222Z,3.83
2022-09-25T23:51:41.924Z,3.60
2022-09-25T23:54:09.225Z,4.15
2022-09-25T23:56:35.907Z,4.63
2022-09-25T23:59:02.650Z,8.63
